Time;durP1;ratioP1;P1;durP2;ratioP2;P2;SDS_P1;SDS_P2;PMS_P1;PMS_P2;Temp;Humidity;BMP_temperature;BMP_pressure;BME280_temperature;BME280_humidity;BME280_pressure;Samples;Min_cycle;Max_cycle;Signal;HPM_P1;HPM_P2
2023/04/18 00:00:31;;;;;;;16.63;9.85;;;6.80;99.90;;;;;;5088667;28;20178;-76
2023/04/18 00:02:57;;;;;;;19.33;9.68;;;7.30;99.90;;;;;;5089709;27;20092;-76
2023/04/18 00:05:23;;;;;;;17.48;9.90;;;7.70;99.90;;;;;;5105445;28;20039;-76
2023/04/18 00:07:50;;;;;;;13.73;9.02;;;6.80;99.90;;;;;;5089788;27;20043;-75
2023/04/18 00:10:15;;;;;;;14.68;9.93;;;6.90;99.90;;;;;;5106015;28;20478;-75
2023/04/18 00:12:41;;;;;;;13.60;8.13;;;6.90;99.90;;;;;;5125280;28;20039;-76
2023/04/18 00:15:08;;;;;;;17.10;10.20;;;6.90;99.90;;;;;;5106724;28;20076;-76
2023/04/18 00:17:37;;;;;;;21.02;9.77;;;6.90;99.90;;;;;;5124092;28;20486;-76
2023/04/18 00:20:06;;;;;;;15.02;9.18;;;7.00;99.90;;;;;;5125217;28;20042;-76
2023/04/18 00:22:32;;;;;;;17.13;9.75;;;6.90;99.90;;;;;;5123754;28;20077;-76
2023/04/18 00:24:58;;;;;;;13.70;8.80;;;7.00;99.90;;;;;;5125023;28;20081;-76
2023/04/18 00:27:24;;;;;;;15.40;9.48;;;6.90;99.90;;;;;;5124174;28;20389;-75
2023/04/18 00:29:50;;;;;;;12.70;8.27;;;6.90;99.90;;;;;;5106437;28;20118;-76
2023/04/18 00:32:16;;;;;;;18.08;9.50;;;6.90;99.90;;;;;;5089758;28;20043;-76
2023/04/18 00:34:42;;;;;;;13.38;9.00;;;7.00;99.90;;;;;;5104813;28;20439;-76
2023/04/18 00:37:07;;;;;;;20.48;8.70;;;6.90;99.90;;;;;;5106559;28;20078;-75
2023/04/18 00:39:36;;;;;;;15.65;8.75;;;6.90;99.90;;;;;;5123179;27;20505;-75
2023/04/18 00:42:02;;;;;;;14.00;8.05;;;6.80;99.90;;;;;;5089550;28;20054;-76
2023/04/18 00:44:28;;;;;;;16.05;9.25;;;6.80;99.90;;;;;;5123488;28;20085;-76
2023/04/18 00:46:54;;;;;;;15.32;8.57;;;6.80;99.90;;;;;;5124877;28;20047;-76
2023/04/18 00:49:21;;;;;;;9.57;7.10;;;6.80;99.90;;;;;;5124341;28;20047;-75
2023/04/18 00:51:47;;;;;;;14.43;7.35;;;6.80;99.90;;;;;;5123840;28;20118;-76
2023/04/18 00:54:13;;;;;;;10.80;6.30;;;7.30;99.90;;;;;;5106673;28;20035;-75
2023/04/18 00:56:39;;;;;;;12.90;7.43;;;6.80;99.90;;;;;;5123326;28;20050;-76
2023/04/18 00:59:08;;;;;;;10.15;7.53;;;7.20;99.90;;;;;;5106220;28;20051;-76
2023/04/18 01:01:33;;;;;;;12.73;7.82;;;6.70;99.90;;;;;;5123311;28;20043;-75
2023/04/18 01:03:59;;;;;;;11.77;7.32;;;6.70;99.90;;;;;;5127355;27;20051;-75
2023/04/18 01:06:26;;;;;;;12.70;7.50;;;6.70;99.90;;;;;;5128260;27;20401;-75
2023/04/18 01:08:53;;;;;;;13.05;7.53;;;6.70;99.90;;;;;;5127608;27;20429;-75
2023/04/18 01:11:19;;;;;;;13.68;6.85;;;6.70;99.90;;;;;;5128222;27;20043;-75
2023/04/18 01:14:05;;;;;;;12.40;7.38;;;6.70;99.90;;;;;;5127066;27;20338;-77
2023/04/18 01:16:35;;;;;;;11.93;7.13;;;6.70;99.90;;;;;;5128614;27;20387;-75
2023/04/18 01:19:02;;;;;;;11.40;7.45;;;6.70;99.90;;;;;;5109050;27;20407;-75
2023/04/18 01:21:30;;;;;;;12.38;7.13;;;6.60;99.90;;;;;;5109014;27;20043;-75
2023/04/18 01:24:01;;;;;;;13.00;8.05;;;7.70;99.90;;;;;;5092503;27;20058;-75
2023/04/18 01:26:28;;;;;;;13.60;6.78;;;6.60;99.90;;;;;;5127098;27;20118;-75
2023/04/18 01:28:54;;;;;;;12.27;7.68;;;6.70;99.90;;;;;;5109459;27;20039;-75
2023/04/18 01:31:20;;;;;;;15.55;7.95;;;7.30;99.90;;;;;;5108380;27;20047;-74
2023/04/18 01:33:45;;;;;;;16.80;8.00;;;6.60;99.90;;;;;;5109612;27;20054;-75
2023/04/18 01:36:11;;;;;;;11.77;6.53;;;6.60;99.90;;;;;;5127108;27;20042;-75
2023/04/18 01:38:37;;;;;;;15.20;7.18;;;6.60;99.90;;;;;;5108831;27;20087;-75
2023/04/18 01:41:02;;;;;;;11.75;7.07;;;6.50;99.90;;;;;;5109372;27;20047;-75
2023/04/18 01:43:28;;;;;;;9.93;7.15;;;6.50;99.90;;;;;;5108164;27;20494;-75
2023/04/18 01:45:54;;;;;;;12.63;6.47;;;6.50;99.90;;;;;;5128117;27;20043;-75
2023/04/18 01:48:20;;;;;;;11.90;6.85;;;6.50;99.90;;;;;;5107101;27;20047;-75
2023/04/18 01:50:45;;;;;;;13.57;7.05;;;6.40;99.90;;;;;;5075555;27;20043;-75
2023/04/18 01:53:11;;;;;;;10.23;7.20;;;6.40;99.90;;;;;;5108034;27;20510;-75
2023/04/18 01:55:37;;;;;;;9.82;7.13;;;7.20;99.90;;;;;;5109081;27;20046;-75
2023/04/18 01:58:02;;;;;;;10.20;7.10;;;6.40;99.90;;;;;;5127705;27;20039;-75
2023/04/18 02:00:28;;;;;;;10.73;6.90;;;7.40;99.90;;;;;;5107739;27;20423;-75
2023/04/18 02:02:54;;;;;;;14.18;7.10;;;6.30;99.90;;;;;;5127605;27;20047;-75
2023/04/18 02:05:20;;;;;;;11.80;6.53;;;6.30;99.90;;;;;;5108100;27;20444;-76
2023/04/18 02:07:46;;;;;;;10.55;6.43;;;6.30;99.90;;;;;;5091735;27;20042;-75
2023/04/18 02:10:12;;;;;;;8.38;5.53;;;6.30;99.90;;;;;;5126350;27;20047;-76
2023/04/18 02:12:37;;;;;;;13.45;6.15;;;6.30;99.90;;;;;;5108623;27;20103;-76
2023/04/18 02:15:03;;;;;;;12.90;6.07;;;6.30;99.90;;;;;;5126093;27;20054;-76
2023/04/18 02:17:29;;;;;;;8.25;5.65;;;6.30;99.90;;;;;;5125946;27;20126;-75
2023/04/18 02:19:55;;;;;;;10.68;6.05;;;6.50;99.90;;;;;;5109080;27;20103;-76
2023/04/18 02:22:21;;;;;;;10.32;5.78;;;6.30;99.90;;;;;;5107142;27;20612;-75
2023/04/18 02:24:46;;;;;;;10.77;5.90;;;6.60;99.90;;;;;;5108557;27;20045;-75
2023/04/18 02:27:12;;;;;;;8.02;5.88;;;6.40;99.90;;;;;;5107496;27;20123;-76
2023/04/18 02:29:38;;;;;;;8.85;5.55;;;6.40;99.90;;;;;;5108463;27;20078;-75
2023/04/18 02:32:04;;;;;;;11.68;5.95;;;7.20;99.90;;;;;;5126424;27;20050;-75
2023/04/18 02:34:32;;;;;;;7.78;5.10;;;6.50;99.90;;;;;;5107162;27;20047;-76
2023/04/18 02:36:57;;;;;;;8.93;5.47;;;6.50;99.90;;;;;;5126737;27;20043;-76
2023/04/18 02:39:23;;;;;;;9.02;5.75;;;6.60;99.90;;;;;;5125215;27;20054;-75
2023/04/18 02:41:49;;;;;;;8.43;5.53;;;6.60;99.90;;;;;;5108581;27;20127;-75
2023/04/18 02:44:15;;;;;;;9.02;5.72;;;6.60;99.90;;;;;;5125359;27;20473;-76
2023/04/18 02:46:41;;;;;;;8.07;5.60;;;6.70;99.90;;;;;;5107723;27;20490;-75
2023/04/18 02:49:07;;;;;;;7.28;5.22;;;6.70;99.90;;;;;;5107253;27;20055;-76
2023/04/18 02:51:32;;;;;;;9.48;5.57;;;6.70;99.90;;;;;;5125880;27;20478;-76
2023/04/18 02:53:58;;;;;;;11.23;5.30;;;7.90;99.90;;;;;;5126394;27;20062;-75
2023/04/18 02:56:24;;;;;;;8.00;5.22;;;7.00;99.90;;;;;;5106517;27;20067;-75
2023/04/18 02:58:49;;;;;;;8.98;6.70;;;6.80;99.90;;;;;;5107917;27;20047;-75
2023/04/18 03:01:16;;;;;;;8.23;5.20;;;6.80;99.90;;;;;;5089945;27;20062;-77
2023/04/18 03:03:42;;;;;;;9.60;5.80;;;8.20;99.90;;;;;;5108137;27;20051;-75
2023/04/18 03:06:08;;;;;;;8.90;5.07;;;6.90;99.90;;;;;;5125336;27;20095;-76
2023/04/18 03:08:33;;;;;;;8.73;5.18;;;6.90;99.90;;;;;;5125319;27;20126;-75
2023/04/18 03:10:59;;;;;;;7.82;5.38;;;6.90;99.90;;;;;;5107113;27;20071;-76
2023/04/18 03:13:25;;;;;;;10.20;5.70;;;6.90;99.90;;;;;;5125555;27;20370;-75
2023/04/18 03:15:51;;;;;;;9.10;5.20;;;5.90;99.90;;;;;;5126010;27;20062;-76
2023/04/18 03:18:16;;;;;;;7.57;5.47;;;7.00;99.90;;;;;;5124522;27;20470;-76
2023/04/18 03:20:42;;;;;;;8.02;5.20;;;6.90;99.90;;;;;;5107409;27;20043;-76
2023/04/18 03:23:08;;;;;;;8.32;4.75;;;6.90;99.90;;;;;;5106560;27;20047;-76
2023/04/18 03:25:34;;;;;;;7.25;4.63;;;6.90;99.90;;;;;;5089402;27;20046;-75
2023/04/18 03:28:00;;;;;;;13.48;5.47;;;6.90;99.90;;;;;;5107388;27;20131;-77
2023/04/18 03:30:25;;;;;;;9.55;5.20;;;7.00;99.90;;;;;;5090015;27;20035;-75
2023/04/18 03:32:52;;;;;;;8.68;5.80;;;7.10;99.90;;;;;;5107532;27;20046;-75
2023/04/18 03:35:18;;;;;;;7.50;5.25;;;7.00;99.90;;;;;;5088932;27;20049;-76
2023/04/18 03:37:44;;;;;;;7.90;4.80;;;7.00;99.90;;;;;;5107348;27;20358;-75
2023/04/18 03:40:10;;;;;;;10.43;5.43;;;7.00;99.90;;;;;;5105951;27;20051;-75
2023/04/18 03:42:36;;;;;;;8.68;5.32;;;7.00;99.90;;;;;;5106803;27;20126;-76
2023/04/18 03:45:02;;;;;;;8.00;5.22;;;7.00;99.90;;;;;;5125159;27;20085;-75
2023/04/18 03:47:30;;;;;;;8.07;5.15;;;7.00;99.90;;;;;;5124449;27;20043;-76
2023/04/18 03:49:56;;;;;;;7.85;5.68;;;6.90;99.90;;;;;;5125224;27;20128;-76
2023/04/18 03:52:22;;;;;;;7.82;5.25;;;6.90;99.90;;;;;;5105272;27;20043;-76
2023/04/18 03:54:47;;;;;;;7.45;4.65;;;7.00;99.90;;;;;;5125463;27;20046;-76
2023/04/18 03:57:13;;;;;;;8.27;5.03;;;8.10;99.90;;;;;;5123923;27;20047;-76
2023/04/18 03:59:40;;;;;;;9.15;5.65;;;7.00;99.90;;;;;;5124738;27;20134;-75
2023/04/18 04:02:06;;;;;;;9.77;5.50;;;7.00;99.90;;;;;;5089268;28;20039;-75
2023/04/18 04:04:32;;;;;;;9.07;5.03;;;7.00;99.90;;;;;;5105584;27;20043;-76
2023/04/18 04:06:58;;;;;;;7.90;5.45;;;7.50;99.90;;;;;;5124856;27;20130;-76
2023/04/18 04:09:24;;;;;;;8.43;5.28;;;7.10;99.90;;;;;;5105893;28;20393;-76
2023/04/18 04:11:50;;;;;;;9.30;5.88;;;7.10;99.90;;;;;;5106331;28;20040;-76
2023/04/18 04:14:15;;;;;;;10.10;5.57;;;7.10;99.90;;;;;;5105194;28;20126;-76
2023/04/18 04:16:41;;;;;;;10.18;5.60;;;7.10;99.90;;;;;;5124761;28;20069;-76
2023/04/18 04:19:07;;;;;;;8.43;5.60;;;7.10;99.90;;;;;;5124455;28;20185;-76
2023/04/18 04:21:33;;;;;;;8.25;5.45;;;7.50;99.90;;;;;;5088550;28;20498;-76
2023/04/18 04:24:00;;;;;;;12.50;5.88;;;7.10;99.90;;;;;;5106169;28;20039;-76
2023/04/18 04:26:26;;;;;;;15.55;6.00;;;7.10;99.90;;;;;;5104930;28;20054;-76
2023/04/18 04:28:52;;;;;;;7.18;5.20;;;8.60;99.90;;;;;;5106205;28;20549;-76
2023/04/18 04:31:20;;;;;;;8.82;6.20;;;7.20;99.90;;;;;;5123484;28;20374;-76
2023/04/18 04:33:46;;;;;;;10.98;6.18;;;7.20;99.90;;;;;;5089234;28;20039;-75
2023/04/18 04:36:13;;;;;;;8.45;5.88;;;7.20;99.90;;;;;;5124281;28;20035;-75
2023/04/18 04:38:39;;;;;;;9.63;5.95;;;7.20;99.90;;;;;;5107712;27;20050;-75
2023/04/18 04:41:06;;;;;;;9.18;6.50;;;7.30;99.90;;;;;;5110311;27;20047;-75
2023/04/18 04:43:35;;;;;;;9.60;6.03;;;7.20;99.90;;;;;;5127935;27;20118;-75
2023/04/18 04:46:06;;;;;;;9.30;5.93;;;7.30;99.90;;;;;;5110167;27;20134;-75
2023/04/18 04:48:32;;;;;;;10.63;5.80;;;7.40;99.90;;;;;;5109459;27;20057;-76
2023/04/18 04:50:59;;;;;;;10.95;6.70;;;7.30;99.90;;;;;;5128613;27;20035;-76
2023/04/18 04:53:29;;;;;;;9.02;6.18;;;8.40;99.90;;;;;;5093150;27;20476;-76
2023/04/18 04:55:55;;;;;;;8.90;5.97;;;7.30;99.90;;;;;;5128057;27;20035;-76
2023/04/18 04:58:21;;;;;;;11.00;7.03;;;7.40;99.90;;;;;;5109826;27;20058;-76
2023/04/18 05:00:46;;;;;;;11.05;7.00;;;7.40;99.90;;;;;;5109054;27;20126;-76
2023/04/18 05:03:12;;;;;;;11.20;7.05;;;7.60;99.90;;;;;;5128618;27;20149;-76
2023/04/18 05:05:38;;;;;;;12.45;7.18;;;7.40;99.90;;;;;;5127666;27;20043;-74
2023/04/18 05:08:04;;;;;;;12.43;7.22;;;7.40;99.90;;;;;;5128314;27;20458;-74
2023/04/18 05:10:31;;;;;;;10.63;7.05;;;7.40;99.90;;;;;;5127543;27;20039;-75
2023/04/18 05:12:57;;;;;;;9.82;7.40;;;7.40;99.90;;;;;;5127405;27;20044;-74
2023/04/18 05:15:23;;;;;;;13.70;7.35;;;7.50;99.90;;;;;;5128494;27;20042;-74
2023/04/18 05:17:49;;;;;;;11.00;6.95;;;7.50;99.90;;;;;;5127292;27;20054;-75
2023/04/18 05:20:15;;;;;;;9.55;6.72;;;7.50;99.90;;;;;;5109972;27;20039;-75
2023/04/18 05:22:40;;;;;;;9.40;6.53;;;7.70;99.90;;;;;;5126664;27;20046;-74
2023/04/18 05:25:07;;;;;;;11.90;6.88;;;7.60;99.90;;;;;;5127615;27;20036;-74
2023/04/18 05:27:32;;;;;;;10.25;7.40;;;7.60;99.90;;;;;;5108980;27;20054;-74
2023/04/18 05:29:58;;;;;;;10.98;6.55;;;8.00;99.90;;;;;;5127163;27;20122;-75
2023/04/18 05:32:24;;;;;;;12.63;8.85;;;7.70;99.90;;;;;;5127900;27;20038;-74
2023/04/18 05:34:50;;;;;;;11.07;7.53;;;7.80;99.90;;;;;;5126837;27;20039;-74
2023/04/18 05:37:15;;;;;;;11.32;7.15;;;7.80;99.90;;;;;;5109723;27;20050;-76
2023/04/18 05:39:41;;;;;;;10.80;6.88;;;8.00;99.90;;;;;;5126290;27;20134;-74
2023/04/18 05:42:07;;;;;;;12.48;8.02;;;7.80;99.90;;;;;;5127904;27;20043;-73
2023/04/18 05:44:33;;;;;;;12.85;7.03;;;7.90;99.90;;;;;;5127260;27;20047;-74
2023/04/18 05:46:58;;;;;;;9.52;6.78;;;7.90;99.90;;;;;;5108897;27;20039;-74
2023/04/18 05:49:24;;;;;;;11.77;6.50;;;7.90;99.90;;;;;;5107508;27;20497;-74
2023/04/18 05:51:51;;;;;;;11.45;6.35;;;7.90;99.90;;;;;;5107997;27;20098;-73
2023/04/18 05:54:18;;;;;;;14.98;7.45;;;7.90;99.90;;;;;;5076302;27;20439;-74
2023/04/18 05:56:43;;;;;;;12.93;7.00;;;8.00;99.90;;;;;;5107531;27;20129;-73
2023/04/18 05:59:09;;;;;;;11.32;7.03;;;8.00;99.90;;;;;;5108914;27;20131;-73
2023/04/18 06:01:35;;;;;;;12.32;6.32;;;8.10;99.90;;;;;;5091770;27;20066;-74
2023/04/18 06:04:01;;;;;;;8.73;6.07;;;9.10;99.90;;;;;;5108797;27;20047;-74
2023/04/18 06:06:26;;;;;;;10.75;6.70;;;8.30;99.90;;;;;;5127629;27;20495;-74
2023/04/18 06:08:53;;;;;;;11.88;6.43;;;8.40;99.90;;;;;;5126507;27;20559;-74
2023/04/18 06:11:20;;;;;;;12.13;6.60;;;8.50;99.90;;;;;;5091839;27;20058;-74
2023/04/18 06:13:45;;;;;;;12.55;6.43;;;8.50;99.90;;;;;;5107245;27;20086;-74
2023/04/18 06:16:11;;;;;;;8.93;6.13;;;8.50;99.90;;;;;;5108756;27;20081;-73
2023/04/18 06:18:37;;;;;;;10.13;6.13;;;8.40;99.90;;;;;;5126158;27;20126;-74
2023/04/18 06:21:03;;;;;;;15.25;6.63;;;8.40;99.90;;;;;;5108453;27;20184;-73
2023/04/18 06:41:42;;;;;;;13.85;6.85;;;8.50;99.90;;;;;;5105204;28;20647;-74
2023/04/18 06:44:08;;;;;;;8.77;5.40;;;8.60;99.90;;;;;;5103494;28;20048;-75
2023/04/18 06:46:34;;;;;;;15.88;6.00;;;8.70;99.90;;;;;;5104047;28;20054;-74
2023/04/18 06:49:00;;;;;;;9.35;5.95;;;8.70;99.90;;;;;;5105865;28;20039;-74
2023/04/18 06:51:26;;;;;;;13.10;6.50;;;8.80;99.90;;;;;;5103952;28;20413;-75
2023/04/18 06:53:52;;;;;;;9.27;5.75;;;8.90;99.90;;;;;;5106166;28;20454;-75
2023/04/18 06:56:19;;;;;;;12.57;6.35;;;9.00;99.90;;;;;;5104607;28;20091;-75
2023/04/18 06:58:45;;;;;;;10.45;6.80;;;9.00;99.90;;;;;;5105932;28;20052;-75
2023/04/18 07:01:11;;;;;;;9.90;6.05;;;9.10;99.90;;;;;;5104368;28;20044;-75
2023/04/18 07:03:36;;;;;;;9.18;5.63;;;9.10;99.90;;;;;;5087268;28;20398;-75
2023/04/18 07:06:03;;;;;;;17.75;7.22;;;9.20;99.90;;;;;;5104175;28;20091;-75
2023/04/18 07:08:29;;;;;;;10.35;6.90;;;9.20;99.90;;;;;;5104959;28;20055;-75
2023/04/18 07:10:55;;;;;;;10.40;6.00;;;9.40;99.90;;;;;;5105452;28;20052;-75
2023/04/18 07:13:20;;;;;;;10.15;5.90;;;9.40;99.90;;;;;;5103118;28;20067;-75
2023/04/18 07:15:46;;;;;;;9.02;6.13;;;9.40;99.90;;;;;;5104241;28;20051;-75
2023/04/18 07:18:12;;;;;;;9.65;7.03;;;9.50;99.90;;;;;;5103016;28;20039;-75
2023/04/18 07:20:37;;;;;;;9.55;6.60;;;9.50;99.90;;;;;;5086899;28;20043;-75
2023/04/18 07:23:03;;;;;;;12.43;6.90;;;9.50;99.90;;;;;;5104600;28;20036;-74
2023/04/18 07:25:29;;;;;;;9.07;6.68;;;9.60;99.90;;;;;;5103117;28;20402;-78
2023/04/18 07:27:55;;;;;;;11.48;6.50;;;9.70;99.90;;;;;;5086813;28;20059;-77
2023/04/18 07:30:20;;;;;;;13.65;8.57;;;10.00;99.90;;;;;;5085565;28;20039;-78
2023/04/18 07:32:46;;;;;;;9.45;5.97;;;9.80;99.90;;;;;;5104120;28;20054;-78
2023/04/18 07:35:12;;;;;;;10.68;7.10;;;9.80;99.90;;;;;;5085317;28;20075;-78
2023/04/18 07:37:38;;;;;;;10.93;7.70;;;9.90;99.90;;;;;;5086351;28;20062;-78
2023/04/18 07:40:05;;;;;;;10.25;5.93;;;9.90;99.90;;;;;;5102634;28;20109;-78
2023/04/18 07:42:31;;;;;;;11.05;7.88;;;10.00;99.90;;;;;;5102488;28;20054;-78
2023/04/18 07:45:00;;;;;;;7.50;5.60;;;10.10;99.90;;;;;;5102778;28;20039;-78
2023/04/18 07:47:26;;;;;;;11.38;6.70;;;10.20;99.90;;;;;;5102288;28;20052;-78
2023/04/18 07:49:52;;;;;;;13.23;6.28;;;10.40;99.90;;;;;;5086857;28;20130;-78
2023/04/18 07:52:18;;;;;;;11.20;6.93;;;10.40;99.90;;;;;;5085185;28;20134;-78
2023/04/18 07:54:44;;;;;;;9.63;6.35;;;10.50;99.90;;;;;;5104738;28;20056;-78
2023/04/18 07:57:10;;;;;;;9.38;6.35;;;10.60;99.90;;;;;;5103676;28;20122;-78
2023/04/18 07:59:36;;;;;;;9.50;5.85;;;10.70;99.90;;;;;;5086229;28;20097;-77
2023/04/18 08:02:02;;;;;;;10.75;5.97;;;10.70;99.90;;;;;;5086283;28;20855;-78
2023/04/18 08:04:27;;;;;;;11.27;6.30;;;10.80;99.90;;;;;;5085243;28;20043;-78
2023/04/18 08:06:53;;;;;;;11.02;5.70;;;10.90;99.90;;;;;;5086395;28;20040;-78
2023/04/18 08:09:20;;;;;;;8.18;5.70;;;11.00;99.90;;;;;;5101740;28;20040;-78
2023/04/18 08:11:46;;;;;;;8.25;5.70;;;11.00;99.90;;;;;;5086412;28;20478;-78
2023/04/18 08:14:12;;;;;;;11.48;5.68;;;11.10;99.90;;;;;;5102273;28;20054;-78
2023/04/18 08:16:38;;;;;;;8.32;5.53;;;11.20;99.90;;;;;;5085760;28;20043;-78
2023/04/18 08:19:03;;;;;;;8.60;5.35;;;11.30;99.90;;;;;;5102525;28;20075;-78
2023/04/18 08:21:30;;;;;;;11.07;6.15;;;11.50;99.90;;;;;;5068374;28;20140;-78
2023/04/18 08:23:56;;;;;;;12.15;7.53;;;11.60;99.90;;;;;;5102889;28;20082;-78
2023/04/18 08:26:26;;;;;;;8.77;5.53;;;11.80;99.90;;;;;;5101587;28;20442;-78
2023/04/18 08:28:54;;;;;;;10.90;6.97;;;12.00;99.90;;;;;;5103182;28;20048;-78
2023/04/18 08:31:19;;;;;;;11.40;5.32;;;12.20;99.90;;;;;;5085438;28;20054;-78
2023/04/18 08:33:45;;;;;;;9.43;5.80;;;12.30;99.90;;;;;;5085719;28;20506;-78
2023/04/18 08:36:11;;;;;;;12.25;6.10;;;12.30;99.90;;;;;;5102922;28;20074;-78
2023/04/18 08:38:36;;;;;;;10.38;5.50;;;12.40;99.90;;;;;;5102061;28;20173;-78
2023/04/18 08:41:02;;;;;;;11.82;6.00;;;12.40;99.90;;;;;;5118788;28;20054;-78
2023/04/18 08:43:30;;;;;;;9.32;5.95;;;12.60;99.90;;;;;;5105040;28;20172;-78
2023/04/18 08:45:59;;;;;;;17.98;6.10;;;12.60;99.90;;;;;;5106324;28;20050;-78
2023/04/18 08:48:27;;;;;;;14.43;5.97;;;12.70;99.90;;;;;;5123683;28;20612;-78
2023/04/18 08:50:58;;;;;;;10.25;5.85;;;12.70;99.90;;;;;;5106087;28;20145;-78
2023/04/18 08:53:25;;;;;;;9.18;5.03;;;12.80;99.90;;;;;;5105552;28;20039;-78
2023/04/18 08:55:59;;;;;;;10.35;5.45;;;12.80;99.90;;;;;;5123592;28;20477;-78
2023/04/18 08:58:26;;;;;;;12.98;5.28;;;12.90;99.90;;;;;;5106277;28;20047;-77
2023/04/18 09:00:53;;;;;;;10.50;5.32;;;13.00;99.90;;;;;;5105171;28;20051;-77
2023/04/18 09:03:38;;;;;;;11.07;5.10;;;13.10;99.90;;;;;;5105799;28;20089;-77
2023/04/18 09:06:15;;;;;;;11.10;5.18;;;13.10;98.00;;;;;;5089223;28;20053;-77
2023/04/18 09:09:02;;;;;;;8.05;4.85;;;13.10;99.90;;;;;;5105105;28;20547;-77
2023/04/18 09:11:30;;;;;;;10.00;5.05;;;13.10;99.60;;;;;;5106763;28;20469;-76
2023/04/18 09:13:57;;;;;;;8.93;4.75;;;13.20;99.70;;;;;;5105053;28;20130;-77
2023/04/18 09:16:24;;;;;;;10.25;5.50;;;13.10;99.50;;;;;;5124449;28;20035;-76
2023/04/18 09:19:13;;;;;;;6.90;4.53;;;13.20;99.40;;;;;;5105172;28;20047;-78
2023/04/18 09:21:40;;;;;;;7.50;4.97;;;13.10;97.80;;;;;;5123216;28;20461;-78
2023/04/18 09:24:19;;;;;;;10.27;4.88;;;13.10;99.10;;;;;;5126196;27;20046;-77
2023/04/18 09:26:46;;;;;;;7.32;5.25;;;13.10;99.00;;;;;;5108215;27;20103;-78
2023/04/18 09:29:12;;;;;;;7.45;4.78;;;13.10;99.20;;;;;;5092425;27;20051;-77
2023/04/18 09:31:59;;;;;;;8.30;4.53;;;13.20;99.10;;;;;;5127611;27;20072;-77
2023/04/18 09:34:28;;;;;;;10.07;5.35;;;13.20;98.60;;;;;;5127149;27;20546;-77
2023/04/18 09:37:11;;;;;;;8.07;5.22;;;13.30;99.00;;;;;;5127805;27;20043;-77
2023/04/18 09:39:41;;;;;;;8.25;4.95;;;13.40;98.60;;;;;;5126507;27;20086;-77
2023/04/18 09:42:09;;;;;;;7.15;4.95;;;13.50;98.20;;;;;;5127918;27;20046;-76
2023/04/18 09:44:35;;;;;;;7.22;4.53;;;13.70;98.90;;;;;;5109165;27;20035;-77
2023/04/18 09:47:06;;;;;;;7.70;4.95;;;13.90;98.80;;;;;;5108899;27;20422;-77
2023/04/18 09:49:32;;;;;;;11.60;4.45;;;14.00;98.10;;;;;;5108931;27;20485;-77
2023/04/18 09:51:59;;;;;;;8.30;4.55;;;14.20;98.10;;;;;;5108003;27;20050;-80
2023/04/18 09:54:27;;;;;;;6.15;4.18;;;14.10;98.30;;;;;;5092423;27;20050;-79
2023/04/18 09:56:55;;;;;;;9.30;4.35;;;14.20;98.30;;;;;;5090981;27;20054;-77
2023/04/18 09:59:49;;;;;;;6.93;4.60;;;13.80;98.20;;;;;;5127258;27;20489;-78
2023/04/18 10:02:20;;;;;;;4.70;3.70;;;14.20;98.20;;;;;;5101175;27;20063;-79
2023/04/18 10:04:49;;;;;;;6.43;3.83;;;14.20;98.20;;;;;;5126344;27;20050;-79
2023/04/18 10:07:16;;;;;;;6.35;4.43;;;14.20;98.20;;;;;;5108785;27;20046;-79
2023/04/18 10:09:45;;;;;;;7.35;4.65;;;14.30;98.20;;;;;;5125835;27;20043;-79
2023/04/18 10:12:11;;;;;;;7.72;3.70;;;14.40;98.20;;;;;;5108130;27;20050;-79
2023/04/18 10:14:41;;;;;;;8.15;3.88;;;14.40;98.50;;;;;;5108276;27;20118;-79
2023/04/18 10:17:12;;;;;;;5.80;3.72;;;14.40;98.00;;;;;;5126180;27;20032;-80
2023/04/18 10:19:40;;;;;;;7.25;4.15;;;14.50;98.30;;;;;;5091522;27;20545;-79
2023/04/18 10:22:07;;;;;;;5.95;3.90;;;14.60;98.30;;;;;;5125626;27;20050;-79
2023/04/18 10:24:48;;;;;;;4.07;3.38;;;14.60;98.30;;;;;;5108423;27;20051;-79
2023/04/18 10:27:38;;;;;;;5.70;3.80;;;14.70;97.50;;;;;;5107741;27;20430;-78
2023/04/18 10:30:04;;;;;;;7.40;3.72;;;14.70;98.00;;;;;;5125755;27;20409;-81
2023/04/18 10:32:30;;;;;;;8.88;3.88;;;14.70;98.10;;;;;;5091561;27;20122;-81
2023/04/18 10:34:55;;;;;;;5.07;3.88;;;14.70;98.00;;;;;;5089589;27;20571;-82
2023/04/18 10:37:21;;;;;;;14.07;3.80;;;14.70;97.90;;;;;;5091348;27;20385;-80
2023/04/18 10:39:56;;;;;;;12.20;4.50;;;14.70;98.10;;;;;;5106833;27;20082;-80
2023/04/18 10:42:47;;;;;;;9.88;3.85;;;14.70;97.90;;;;;;5126165;27;20078;-80
2023/04/18 10:45:28;;;;;;;6.13;4.00;;;14.90;97.60;;;;;;5108354;27;20554;-81
2023/04/18 10:48:26;;;;;;;6.10;4.30;;;14.90;96.60;;;;;;5125429;27;20099;-81
2023/04/18 10:51:18;;;;;;;4.68;3.72;;;14.90;96.90;;;;;;5107414;27;20082;-81
2023/04/18 10:53:56;;;;;;;8.98;4.10;;;14.90;97.20;;;;;;5107711;27;20054;-81
2023/04/18 10:56:22;;;;;;;5.25;3.50;;;14.90;96.90;;;;;;5106282;27;20486;-81
2023/04/18 10:58:51;;;;;;;6.45;3.83;;;14.90;97.50;;;;;;5125869;27;20121;-82
2023/04/18 11:01:28;;;;;;;7.38;3.95;;;15.00;97.80;;;;;;5105365;27;20054;-81
2023/04/18 11:03:55;;;;;;;5.82;3.78;;;15.10;97.30;;;;;;5125615;27;20130;-81
2023/04/18 11:06:27;;;;;;;5.28;3.60;;;15.20;97.70;;;;;;5126067;27;20493;-81
2023/04/18 11:09:12;;;;;;;8.35;4.20;;;15.40;98.30;;;;;;5125193;27;20057;-81
2023/04/18 11:11:38;;;;;;;7.25;3.70;;;15.50;97.50;;;;;;5108092;27;20404;-81
2023/04/18 11:14:04;;;;;;;5.50;3.90;;;15.70;97.40;;;;;;5124797;27;20046;-81
2023/04/18 11:16:33;;;;;;;7.78;4.28;;;15.70;96.80;;;;;;5125775;27;20121;-80
2023/04/18 11:18:59;;;;;;;7.53;4.10;;;15.60;96.10;;;;;;5072816;27;20451;-80
2023/04/18 11:21:28;;;;;;;6.63;3.72;;;15.60;96.70;;;;;;5089401;27;20043;-81
2023/04/18 11:23:57;;;;;;;4.55;3.63;;;15.60;96.80;;;;;;5125859;27;20035;-81
2023/04/18 11:26:27;;;;;;;7.28;3.53;;;15.50;96.40;;;;;;5106224;27;20051;-80
2023/04/18 11:28:57;;;;;;;5.57;3.03;;;15.50;96.50;;;;;;5107235;27;20138;-78
2023/04/18 11:31:23;;;;;;;3.83;2.83;;;15.60;96.60;;;;;;5089613;27;20045;-79
2023/04/18 11:33:50;;;;;;;4.82;2.70;;;15.70;96.70;;;;;;5125370;27;20100;-79
2023/04/18 11:36:16;;;;;;;5.35;3.35;;;15.80;96.90;;;;;;5106893;27;20439;-80
2023/04/18 11:38:42;;;;;;;8.57;2.75;;;15.90;96.20;;;;;;5124303;27;20486;-79
2023/04/18 11:41:13;;;;;;;5.25;2.45;;;17.00;96.50;;;;;;5125102;27;20047;-79
2023/04/18 11:43:44;;;;;;;5.38;2.60;;;16.10;96.20;;;;;;5088735;27;20051;-79
2023/04/18 11:46:11;;;;;;;6.53;2.70;;;16.00;95.60;;;;;;5106977;27;20488;-79
2023/04/18 11:48:41;;;;;;;6.57;3.60;;;15.90;95.10;;;;;;5124825;27;20390;-79
2023/04/18 11:51:28;;;;;;;9.20;3.03;;;15.90;94.80;;;;;;5106246;27;20043;-79
2023/04/18 11:53:53;;;;;;;11.88;4.38;;;15.80;94.90;;;;;;5125103;27;20050;-79
2023/04/18 11:56:19;;;;;;;4.35;2.30;;;15.70;95.60;;;;;;5105552;27;20039;-78
2023/04/18 11:58:45;;;;;;;9.45;2.60;;;15.70;95.60;;;;;;5107233;28;20096;-79
2023/04/18 12:01:19;;;;;;;4.03;2.20;;;15.70;95.30;;;;;;5106201;27;20124;-80
2023/04/18 12:04:05;;;;;;;4.50;2.47;;;15.50;95.00;;;;;;5106796;27;20074;-79
2023/04/18 12:06:48;;;;;;;3.05;2.10;;;15.40;94.60;;;;;;5106402;27;20051;-80
2023/04/18 12:09:15;;;;;;;3.58;1.92;;;15.30;94.60;;;;;;5105272;27;20494;-80
2023/04/18 12:11:41;;;;;;;3.60;2.00;;;15.40;95.20;;;;;;5106573;27;20485;-80
2023/04/18 12:14:20;;;;;;;3.33;1.90;;;15.50;95.30;;;;;;5106026;27;20088;-80
2023/04/18 12:16:48;;;;;;;4.60;1.83;;;15.70;94.90;;;;;;5088950;28;20520;-79
2023/04/18 12:19:14;;;;;;;3.55;2.22;;;15.80;94.90;;;;;;5106409;28;20055;-79
2023/04/18 12:21:59;;;;;;;2.60;2.00;;;15.80;94.60;;;;;;5105500;28;20051;-79
2023/04/18 12:24:27;;;;;;;5.57;2.00;;;15.70;93.80;;;;;;5106511;28;20088;-79
2023/04/18 12:26:59;;;;;;;4.22;2.03;;;15.60;94.80;;;;;;5105722;28;20114;-79
2023/04/18 12:29:27;;;;;;;2.05;1.42;;;15.60;94.70;;;;;;5106345;28;20122;-79
2023/04/18 12:31:53;;;;;;;5.30;2.40;;;15.70;95.00;;;;;;5105668;28;20047;-78
2023/04/18 12:34:19;;;;;;;3.53;2.10;;;15.90;95.30;;;;;;5105492;28;20107;-78
2023/04/18 12:36:45;;;;;;;4.13;2.17;;;15.90;95.20;;;;;;5124780;28;20055;-78
2023/04/18 12:39:12;;;;;;;3.60;2.30;;;15.90;94.70;;;;;;5105327;28;20188;-77
2023/04/18 12:41:37;;;;;;;4.13;2.60;;;16.00;94.20;;;;;;5125081;28;20070;-78
2023/04/18 12:44:03;;;;;;;3.33;2.20;;;16.00;94.00;;;;;;5124050;28;20496;-78
2023/04/18 12:46:30;;;;;;;2.75;2.20;;;16.10;93.80;;;;;;5106644;28;20054;-78
2023/04/18 12:48:56;;;;;;;5.28;2.15;;;16.10;93.70;;;;;;5124109;28;20093;-78
2023/04/18 12:51:23;;;;;;;3.38;2.05;;;16.20;93.30;;;;;;5088231;28;20101;-78
2023/04/18 12:53:49;;;;;;;3.95;2.40;;;16.30;93.30;;;;;;5088645;28;20062;-78
2023/04/18 12:56:14;;;;;;;4.38;2.40;;;16.30;93.10;;;;;;5105380;28;20039;-77
2023/04/18 12:58:40;;;;;;;5.47;2.35;;;17.40;92.90;;;;;;5107133;27;20108;-77
2023/04/18 13:01:06;;;;;;;5.97;1.85;;;16.30;92.50;;;;;;5108805;27;20516;-77
2023/04/18 13:03:33;;;;;;;3.67;1.73;;;16.30;93.00;;;;;;5093176;27;20659;-78
2023/04/18 13:05:58;;;;;;;4.32;2.25;;;16.50;92.80;;;;;;5092169;27;20046;-77
2023/04/18 13:08:24;;;;;;;3.75;2.30;;;16.80;93.00;;;;;;5109228;27;20039;-79